createdAt,value
2022-08-08T00:08:29.145Z,97909.88
2022-08-08T00:19:08.894Z,97912.50
2022-08-08T00:29:45.593Z,97907.72
2022-08-08T00:41:10.146Z,97921.06
2022-08-08T00:51:39.030Z,97909.78
2022-08-08T01:03:58.445Z,97918.25
2022-08-08T01:13:09.729Z,97907.94
2022-08-08T01:24:05.770Z,97906.81
2022-08-08T01:34:36.748Z,97907.28
2022-08-08T01:45:02.961Z,97908.00
2022-08-08T01:56:27.070Z,97909.63
2022-08-08T02:06:00.658Z,97914.97
2022-08-08T02:16:37.753Z,97922.63
2022-08-08T02:27:03.554Z,97928.38
2022-08-08T02:37:53.200Z,97921.16
2022-08-08T02:47:52.152Z,97927.69
2022-08-08T02:58:20.343Z,97926.56
2022-08-08T03:09:13.123Z,97928.19
2022-08-08T03:19:51.404Z,97935.97
2022-08-08T03:30:04.986Z,97937.59
2022-08-08T03:40:29.974Z,97939.91
2022-08-08T03:50:32.752Z,97948.31
2022-08-08T04:01:01.740Z,97956.13
2022-08-08T04:11:11.266Z,97964.63
2022-08-08T04:21:22.822Z,97965.06
2022-08-08T04:31:30.803Z,97986.28
2022-08-08T04:41:48.820Z,97991.31
2022-08-08T04:51:57.136Z,97996.59
2022-08-08T05:02:00.968Z,98006.81
2022-08-08T05:12:03.880Z,98004.56
2022-08-08T05:22:12.144Z,98010.94
2022-08-08T05:32:19.243Z,98010.59
2022-08-08T05:42:49.620Z,98013.25
2022-08-08T05:52:51.944Z,98023.09
2022-08-08T06:03:24.801Z,98034.31
2022-08-08T06:13:35.563Z,98047.50
2022-08-08T06:23:52.987Z,98046.94
2022-08-08T06:34:27.192Z,98040.81
2022-08-08T06:44:34.389Z,98026.88
2022-08-08T06:54:37.604Z,98030.84
2022-08-08T07:04:52.366Z,98031.91
2022-08-08T07:15:06.189Z,98021.47
2022-08-08T07:25:31.817Z,98017.75
2022-08-08T07:35:35.504Z,98023.22
2022-08-08T07:46:04.934Z,98019.78
2022-08-08T07:56:02.541Z,98027.41
2022-08-08T08:06:06.484Z,98025.19
2022-08-08T08:16:19.700Z,98020.53
2022-08-08T08:26:27.270Z,98024.25
2022-08-08T08:36:29.867Z,98031.06
2022-08-08T08:46:35.623Z,98015.34
2022-08-08T08:56:42.272Z,98019.44
2022-08-08T09:06:53.718Z,98020.81
2022-08-08T09:17:00.134Z,98014.78
2022-08-08T09:27:20.129Z,97994.47
2022-08-08T09:37:58.370Z,98009.91
2022-08-08T09:48:10.044Z,97987.00
2022-08-08T09:58:27.833Z,97988.34
2022-08-08T10:08:48.367Z,97981.31
2022-08-08T10:19:04.597Z,97971.03
2022-08-08T10:29:11.343Z,97972.84
2022-08-08T10:39:31.750Z,97961.56
2022-08-08T10:50:01.238Z,97956.28
2022-08-08T11:00:05.730Z,97959.91
2022-08-08T11:10:12.651Z,97947.91
2022-08-08T11:20:28.385Z,97968.28
2022-08-08T11:30:34.109Z,97963.34
2022-08-08T11:40:42.795Z,97964.84
2022-08-08T11:50:47.800Z,97967.25
2022-08-08T12:00:58.258Z,97963.03
2022-08-08T12:11:03.910Z,97953.97
2022-08-08T12:21:05.715Z,97943.84
2022-08-08T12:31:10.513Z,97936.16
2022-08-08T12:41:34.088Z,97931.97
2022-08-08T12:51:49.800Z,97928.81
2022-08-08T13:02:00.803Z,97924.19
2022-08-08T13:12:28.878Z,97926.91
2022-08-08T13:22:36.505Z,97918.66
2022-08-08T13:32:39.955Z,97910.75
2022-08-08T13:42:42.374Z,97896.50
2022-08-08T13:52:50.145Z,97889.03
2022-08-08T14:02:59.354Z,97882.47
2022-08-08T14:13:06.053Z,97874.50
2022-08-08T14:23:21.381Z,97881.34
2022-08-08T14:33:38.889Z,97870.13
2022-08-08T14:44:10.638Z,97871.03
2022-08-08T14:54:16.169Z,97865.03
2022-08-08T15:04:30.116Z,97868.50
2022-08-08T15:14:34.074Z,97863.03
2022-08-08T15:24:37.488Z,97866.31
2022-08-08T15:34:39.468Z,97864.75
2022-08-08T15:44:42.514Z,97858.88
2022-08-08T15:54:51.343Z,97858.97
2022-08-08T16:04:54.471Z,97855.09
2022-08-08T16:15:00.375Z,97854.22
2022-08-08T16:25:05.885Z,97855.56
2022-08-08T16:35:09.900Z,97849.47
2022-08-08T16:46:37.295Z,97850.16
2022-08-08T16:55:53.076Z,97854.97
2022-08-08T17:05:56.933Z,97868.00
2022-08-08T17:15:58.627Z,97862.00
2022-08-08T17:26:05.283Z,97874.66
2022-08-08T17:36:10.036Z,97890.28
2022-08-08T17:46:41.158Z,97902.72
2022-08-08T17:56:43.104Z,97914.28
2022-08-08T18:06:49.252Z,97921.84
2022-08-08T18:16:52.930Z,97941.34
2022-08-08T18:26:58.499Z,97938.50
2022-08-08T18:37:04.869Z,97953.00
2022-08-08T18:47:11.170Z,97961.91
2022-08-08T18:57:12.908Z,97975.78
2022-08-08T19:07:14.771Z,98004.50
2022-08-08T19:17:29.310Z,98018.97
2022-08-08T19:27:56.900Z,98034.53
2022-08-08T19:38:00.915Z,98038.59
2022-08-08T19:48:03.834Z,98043.25
2022-08-08T19:58:07.544Z,98055.25
2022-08-08T20:08:30.948Z,98051.25
2022-08-08T20:18:39.898Z,98056.63
2022-08-08T20:28:53.660Z,98061.66
2022-08-08T20:38:55.312Z,98066.66
2022-08-08T20:48:58.578Z,98063.88
2022-08-08T20:59:01.507Z,98066.63
2022-08-08T21:09:07.649Z,98080.66
2022-08-08T21:19:10.847Z,98080.81
2022-08-08T21:29:14.093Z,98089.53
2022-08-08T21:39:23.939Z,98090.19
2022-08-08T21:49:43.181Z,98092.25
2022-08-08T22:00:03.310Z,98089.06
2022-08-08T22:10:18.322Z,98084.28
2022-08-08T22:20:31.631Z,98095.50
2022-08-08T22:30:33.749Z,98104.28
2022-08-08T22:40:35.392Z,98096.59
2022-08-08T22:50:37.974Z,98107.97
2022-08-08T23:00:41.939Z,98120.31
2022-08-08T23:11:00.611Z,98119.59
2022-08-08T23:21:08.491Z,98116.06
2022-08-08T23:31:10.044Z,98104.84
2022-08-08T23:41:23.177Z,98116.22
2022-08-08T23:51:41.904Z,98118.16
